Time;durP1;ratioP1;P1;durP2;ratioP2;P2;SDS_P1;SDS_P2;PMS_P1;PMS_P2;Temp;Humidity;BMP_temperature;BMP_pressure;BME280_temperature;BME280_humidity;BME280_pressure;Samples;Min_cycle;Max_cycle;Signal;HPM_P1;HPM_P2
2023/04/21 00:01:22;;;;;;;25.77;17.73;;;8.20;99.90;;;;;;5001607;28;20433;-59
2023/04/21 00:03:49;;;;;;;25.45;17.27;;;8.20;99.90;;;;;;5002777;28;20046;-58
2023/04/21 00:06:21;;;;;;;22.98;17.08;;;8.20;99.90;;;;;;5001843;28;20068;-49
2023/04/21 00:08:47;;;;;;;22.50;17.48;;;8.20;99.90;;;;;;5003082;28;20366;-57
2023/04/21 00:11:14;;;;;;;23.05;17.25;;;8.10;99.90;;;;;;5003017;28;20058;-56
2023/04/21 00:13:39;;;;;;;25.38;17.77;;;8.20;99.90;;;;;;5002586;28;20045;-55
2023/04/21 00:16:06;;;;;;;22.48;15.30;;;8.30;99.90;;;;;;5000803;28;20455;-55
2023/04/21 00:18:31;;;;;;;23.20;16.75;;;8.10;99.90;;;;;;5002868;28;20049;-55
2023/04/21 00:20:57;;;;;;;22.65;16.67;;;8.20;99.90;;;;;;5001590;28;20049;-55
2023/04/21 00:23:23;;;;;;;21.20;16.60;;;8.00;99.90;;;;;;5002129;28;20033;-55
2023/04/21 00:25:48;;;;;;;24.52;17.33;;;8.00;99.90;;;;;;5002132;28;20117;-53
2023/04/21 00:28:14;;;;;;;26.00;16.85;;;7.90;99.90;;;;;;5002714;28;20050;-55
2023/04/21 00:30:40;;;;;;;22.13;16.38;;;7.90;99.90;;;;;;5001967;28;20058;-55
2023/04/21 00:33:05;;;;;;;22.73;17.25;;;7.90;99.90;;;;;;5002077;28;20519;-55
2023/04/21 00:35:31;;;;;;;20.77;16.63;;;8.00;99.90;;;;;;5001377;28;20038;-51
2023/04/21 00:37:57;;;;;;;23.27;15.10;;;7.80;99.90;;;;;;5002121;28;20048;-56
2023/04/21 00:40:22;;;;;;;25.35;18.08;;;7.80;99.90;;;;;;5001785;28;20401;-56
2023/04/21 00:42:48;;;;;;;24.00;16.58;;;7.80;99.90;;;;;;5002549;28;20656;-49
2023/04/21 00:45:14;;;;;;;23.73;16.30;;;7.80;99.90;;;;;;5002195;28;20112;-55
2023/04/21 00:47:40;;;;;;;24.10;17.05;;;7.80;99.90;;;;;;5001890;28;20038;-57
2023/04/21 00:50:06;;;;;;;22.70;16.42;;;7.80;99.90;;;;;;5001560;28;20203;-55
2023/04/21 00:52:34;;;;;;;22.88;16.80;;;7.80;99.90;;;;;;5002285;28;20129;-55
2023/04/21 00:55:00;;;;;;;22.70;16.55;;;7.80;99.90;;;;;;5002130;28;20042;-55
2023/04/21 00:57:27;;;;;;;22.33;16.08;;;7.70;99.90;;;;;;5001905;28;20400;-53
2023/04/21 00:59:53;;;;;;;23.60;17.25;;;7.70;99.90;;;;;;5002006;28;20429;-52
2023/04/21 01:02:20;;;;;;;21.58;16.92;;;7.70;99.90;;;;;;5002149;28;20038;-54
2023/04/21 01:04:46;;;;;;;25.38;17.02;;;7.70;99.90;;;;;;5000790;28;20038;-59
2023/04/21 01:07:12;;;;;;;22.85;15.95;;;7.80;99.90;;;;;;5001907;28;20053;-53
2023/04/21 01:09:37;;;;;;;23.35;16.30;;;7.90;99.90;;;;;;5002014;28;20038;-55
2023/04/21 01:12:11;;;;;;;21.13;16.20;;;7.70;99.90;;;;;;5001509;28;20042;-60
2023/04/21 01:14:38;;;;;;;23.38;15.70;;;7.70;99.90;;;;;;5067934;22;20058;-57
2023/04/21 01:17:04;;;;;;;26.45;18.33;;;7.60;99.90;;;;;;4984688;28;20058;-60
2023/04/21 01:19:34;;;;;;;22.88;16.98;;;7.60;99.90;;;;;;4983267;28;20050;-50
2023/04/21 01:22:00;;;;;;;24.42;17.05;;;7.60;99.90;;;;;;4984827;28;20438;-52
2023/04/21 01:24:41;;;;;;;22.40;16.60;;;7.60;99.90;;;;;;4985155;28;20054;-53
2023/04/21 01:27:11;;;;;;;19.23;16.23;;;7.60;99.90;;;;;;4984291;28;20053;-54
2023/04/21 01:29:38;;;;;;;20.75;15.93;;;7.60;99.90;;;;;;4984949;28;20047;-60
2023/04/21 01:32:09;;;;;;;23.38;16.98;;;7.70;99.90;;;;;;4984033;28;20039;-59
2023/04/21 01:34:36;;;;;;;25.38;16.20;;;7.60;99.90;;;;;;4983851;28;20051;-55
2023/04/21 01:37:01;;;;;;;23.13;17.17;;;7.60;99.90;;;;;;4986240;28;20042;-52
2023/04/21 01:39:27;;;;;;;22.85;16.33;;;7.50;99.90;;;;;;4988015;28;20381;-50
2023/04/21 01:41:56;;;;;;;24.02;17.50;;;7.60;99.90;;;;;;4985959;28;20093;-49
2023/04/21 01:44:23;;;;;;;27.27;17.48;;;7.60;99.90;;;;;;4988747;28;20366;-56
2023/04/21 01:46:49;;;;;;;24.00;16.88;;;7.60;99.90;;;;;;4988444;28;20129;-53
2023/04/21 01:49:15;;;;;;;22.38;17.30;;;7.50;99.90;;;;;;5003337;28;20181;-59
2023/04/21 01:51:40;;;;;;;23.50;16.85;;;7.50;99.90;;;;;;5007720;28;20049;-58
2023/04/21 01:54:06;;;;;;;23.25;17.27;;;7.40;99.90;;;;;;5007318;28;20034;-53
2023/04/21 01:56:31;;;;;;;23.80;17.15;;;7.50;99.90;;;;;;5006735;28;20556;-57
2023/04/21 01:58:57;;;;;;;24.65;18.23;;;7.50;99.90;;;;;;5007262;28;20042;-59
2023/04/21 02:01:23;;;;;;;25.00;17.60;;;7.40;99.90;;;;;;5006546;28;20531;-56
2023/04/21 02:03:49;;;;;;;23.77;17.20;;;7.40;99.90;;;;;;5007364;28;20077;-59
2023/04/21 02:06:16;;;;;;;27.33;18.23;;;7.40;99.90;;;;;;5006553;28;20050;-58
2023/04/21 02:08:42;;;;;;;28.35;18.48;;;7.40;99.90;;;;;;5007479;28;20050;-60
2023/04/21 02:11:08;;;;;;;27.05;17.98;;;7.40;99.90;;;;;;5007440;28;20050;-56
2023/04/21 02:13:33;;;;;;;25.05;16.98;;;7.40;99.90;;;;;;5006619;28;20126;-58
2023/04/21 02:15:59;;;;;;;23.75;18.30;;;7.30;99.90;;;;;;5007124;28;20085;-57
2023/04/21 02:18:24;;;;;;;25.00;18.15;;;7.30;99.90;;;;;;5007728;28;20069;-53
2023/04/21 02:20:50;;;;;;;23.95;17.45;;;7.40;99.90;;;;;;5006440;28;20297;-58
2023/04/21 02:23:17;;;;;;;25.92;17.33;;;7.40;99.90;;;;;;5006516;28;20104;-57
2023/04/21 02:25:43;;;;;;;23.05;18.55;;;7.20;99.90;;;;;;5006636;28;20076;-57
2023/04/21 02:28:08;;;;;;;25.63;18.45;;;7.30;99.90;;;;;;5006999;28;20128;-60
2023/04/21 02:30:34;;;;;;;24.38;18.52;;;7.20;99.90;;;;;;5006249;28;20128;-51
2023/04/21 02:33:00;;;;;;;25.00;19.42;;;7.20;99.90;;;;;;5006832;28;20069;-60
2023/04/21 02:35:26;;;;;;;26.25;17.27;;;7.20;99.90;;;;;;5004837;28;20499;-55
2023/04/21 02:37:51;;;;;;;26.40;18.40;;;7.20;99.90;;;;;;5006194;28;20108;-59
2023/04/21 02:40:17;;;;;;;28.23;18.88;;;7.30;99.90;;;;;;5006360;28;20567;-59
2023/04/21 02:42:42;;;;;;;26.95;19.67;;;7.10;99.90;;;;;;5005242;28;20096;-59
2023/04/21 02:45:09;;;;;;;27.50;18.83;;;7.10;99.90;;;;;;5007141;28;20112;-59
2023/04/21 02:47:35;;;;;;;28.00;19.45;;;7.10;99.90;;;;;;5005155;28;20041;-59
2023/04/21 02:50:00;;;;;;;26.85;17.95;;;7.50;99.90;;;;;;5004296;28;20069;-59
2023/04/21 02:52:26;;;;;;;27.95;18.25;;;7.00;99.90;;;;;;5006648;28;20524;-55
2023/04/21 02:54:52;;;;;;;27.02;19.17;;;7.00;99.90;;;;;;5006088;28;20056;-57
2023/04/21 02:57:18;;;;;;;27.00;17.77;;;7.00;99.90;;;;;;5006460;28;20053;-55
2023/04/21 02:59:43;;;;;;;25.50;18.73;;;7.10;99.90;;;;;;5005933;28;20073;-58
2023/04/21 03:02:09;;;;;;;24.92;19.25;;;7.00;99.90;;;;;;5006088;28;20125;-59
2023/04/21 03:04:35;;;;;;;26.13;18.45;;;7.00;99.90;;;;;;5004724;28;20091;-54
2023/04/21 03:07:00;;;;;;;26.70;17.63;;;7.00;99.90;;;;;;5006286;28;20727;-59
2023/04/21 03:09:26;;;;;;;22.13;17.65;;;7.00;99.90;;;;;;5005522;28;20448;-58
2023/04/21 03:11:51;;;;;;;26.55;17.52;;;7.00;99.90;;;;;;5005452;28;20053;-57
2023/04/21 03:14:17;;;;;;;22.00;15.88;;;7.00;99.90;;;;;;5006408;28;20085;-59
2023/04/21 03:16:43;;;;;;;22.02;17.42;;;7.40;99.90;;;;;;5005999;28;20053;-48
2023/04/21 03:19:09;;;;;;;25.75;17.58;;;7.00;99.90;;;;;;5005226;28;20053;-58
2023/04/21 03:21:38;;;;;;;26.48;16.38;;;7.10;99.90;;;;;;5004810;28;20037;-58
2023/04/21 03:24:05;;;;;;;23.90;16.90;;;7.00;99.90;;;;;;5006114;28;20112;-53
2023/04/21 03:26:30;;;;;;;23.38;15.70;;;7.10;99.90;;;;;;5005661;28;20180;-58
2023/04/21 03:28:56;;;;;;;22.80;16.90;;;7.20;99.90;;;;;;5005428;28;20042;-59
2023/04/21 03:31:22;;;;;;;22.58;16.30;;;7.20;99.90;;;;;;5005606;28;20447;-58
2023/04/21 03:33:47;;;;;;;20.17;14.63;;;7.30;99.90;;;;;;5004843;28;20049;-59
2023/04/21 03:36:13;;;;;;;24.25;15.48;;;7.30;99.90;;;;;;5005155;28;20046;-57
2023/04/21 03:38:38;;;;;;;21.02;15.93;;;7.30;99.90;;;;;;5005911;28;20473;-59
2023/04/21 03:41:04;;;;;;;24.50;15.50;;;7.70;99.90;;;;;;5005434;28;20049;-58
2023/04/21 03:43:30;;;;;;;23.48;16.45;;;7.40;99.90;;;;;;5006498;28;20440;-59
2023/04/21 03:45:55;;;;;;;20.55;13.80;;;7.40;99.90;;;;;;5005560;28;20746;-58
2023/04/21 03:48:21;;;;;;;19.13;14.13;;;7.40;99.90;;;;;;5004778;28;20042;-59
2023/04/21 03:50:47;;;;;;;22.08;16.13;;;7.40;99.90;;;;;;5005680;28;20049;-54
2023/04/21 03:53:12;;;;;;;22.35;15.32;;;7.40;99.90;;;;;;5005246;28;20038;-60
2023/04/21 03:55:38;;;;;;;21.23;14.23;;;7.50;99.90;;;;;;5005175;28;20050;-57
2023/04/21 03:58:04;;;;;;;21.35;15.85;;;7.50;99.90;;;;;;5005835;28;20045;-49
2023/04/21 04:00:30;;;;;;;21.38;15.63;;;7.40;99.90;;;;;;5004297;28;20077;-53
2023/04/21 04:02:55;;;;;;;21.38;14.63;;;7.50;99.90;;;;;;5005048;28;20143;-59
2023/04/21 04:05:21;;;;;;;21.25;14.95;;;7.40;99.90;;;;;;5004313;28;20576;-58
2023/04/21 04:07:46;;;;;;;21.38;14.18;;;7.40;99.90;;;;;;5004924;28;20076;-59
2023/04/21 04:10:12;;;;;;;20.00;14.10;;;7.40;99.90;;;;;;5003999;28;20133;-59
2023/04/21 04:12:38;;;;;;;21.45;15.18;;;7.40;99.90;;;;;;5004758;28;20042;-58
2023/04/21 04:15:04;;;;;;;22.58;15.48;;;7.40;99.90;;;;;;5004130;28;20062;-59
2023/04/21 04:17:29;;;;;;;20.40;14.57;;;7.40;99.90;;;;;;5004540;28;20042;-49
2023/04/21 04:19:55;;;;;;;24.10;14.93;;;7.40;99.90;;;;;;5004722;28;20038;-56
2023/04/21 04:22:21;;;;;;;21.75;14.50;;;7.50;99.90;;;;;;5003644;28;20276;-59
2023/04/21 04:24:46;;;;;;;23.60;15.45;;;7.50;99.90;;;;;;5003889;28;20041;-49
2023/04/21 04:27:15;;;;;;;24.15;16.00;;;7.60;99.90;;;;;;5004230;28;20046;-60
2023/04/21 04:29:42;;;;;;;20.05;13.95;;;7.40;99.90;;;;;;5005150;28;20041;-58
2023/04/21 04:32:09;;;;;;;20.75;12.82;;;7.40;99.90;;;;;;5004823;28;20420;-59
2023/04/21 04:34:36;;;;;;;23.92;14.82;;;7.70;99.90;;;;;;5001644;28;20046;-57
2023/04/21 04:37:03;;;;;;;21.48;14.75;;;7.40;99.90;;;;;;5005082;28;20046;-52
2023/04/21 04:39:30;;;;;;;18.10;13.30;;;7.40;99.90;;;;;;5005087;28;20048;-54
2023/04/21 04:41:55;;;;;;;19.75;13.45;;;7.80;99.90;;;;;;5003917;28;20053;-56
2023/04/21 04:44:22;;;;;;;20.63;14.45;;;7.40;99.90;;;;;;5004727;28;20041;-54
2023/04/21 04:46:48;;;;;;;19.15;13.30;;;7.50;99.90;;;;;;5004436;28;20065;-53
2023/04/21 04:49:14;;;;;;;19.00;13.68;;;7.40;99.90;;;;;;5003786;28;20511;-47
2023/04/21 04:51:40;;;;;;;20.48;13.30;;;7.50;99.90;;;;;;5004485;28;20532;-53
2023/04/21 04:54:05;;;;;;;20.33;13.50;;;7.50;99.90;;;;;;5004441;28;20042;-51
2023/04/21 04:56:31;;;;;;;24.45;14.45;;;7.50;99.90;;;;;;5004496;28;20144;-50
2023/04/21 04:58:57;;;;;;;19.88;14.25;;;7.70;99.90;;;;;;5002916;28;20057;-54
2023/04/21 05:01:28;;;;;;;21.38;14.23;;;7.50;99.90;;;;;;5004688;28;20042;-51
2023/04/21 05:03:54;;;;;;;20.55;13.65;;;7.60;99.90;;;;;;5003619;28;20050;-58
2023/04/21 05:06:20;;;;;;;25.52;14.02;;;7.60;99.90;;;;;;5004022;28;20495;-58
2023/04/21 05:08:46;;;;;;;19.45;14.13;;;7.70;99.90;;;;;;5002738;28;20053;-48
2023/04/21 05:11:11;;;;;;;23.80;13.98;;;7.60;99.90;;;;;;5007133;28;20476;-58
2023/04/21 05:13:37;;;;;;;18.45;13.20;;;7.60;99.90;;;;;;5008076;28;20049;-48
2023/04/21 05:16:03;;;;;;;17.63;13.68;;;7.60;99.90;;;;;;5008025;28;20570;-58
2023/04/21 05:18:28;;;;;;;22.65;14.23;;;7.70;99.90;;;;;;5007277;28;20034;-59
2023/04/21 05:20:55;;;;;;;19.90;13.80;;;7.80;99.90;;;;;;5008416;28;20118;-59
2023/04/21 05:23:21;;;;;;;20.00;13.20;;;7.80;99.90;;;;;;5007188;28;20055;-59
2023/04/21 05:25:46;;;;;;;19.02;13.50;;;7.90;99.90;;;;;;5008170;28;20042;-59
2023/04/21 05:28:13;;;;;;;20.80;12.80;;;8.40;99.90;;;;;;5008448;28;20054;-53
2023/04/21 05:30:39;;;;;;;19.77;13.10;;;8.20;99.90;;;;;;5007223;28;20523;-55
2023/04/21 05:33:05;;;;;;;23.13;13.57;;;8.30;99.90;;;;;;5006893;28;20034;-60
2023/04/21 05:35:30;;;;;;;17.30;13.13;;;8.50;99.90;;;;;;5008644;28;20132;-57
2023/04/21 05:37:56;;;;;;;20.67;12.45;;;8.90;99.90;;;;;;5007611;28;20432;-59
2023/04/21 05:40:22;;;;;;;19.88;12.13;;;9.10;99.90;;;;;;5005335;28;20076;-57
2023/04/21 05:42:47;;;;;;;17.58;11.68;;;9.50;99.90;;;;;;5007724;28;20057;-58
2023/04/21 05:45:13;;;;;;;18.13;11.35;;;9.70;99.90;;;;;;5007580;28;20052;-59
2023/04/21 05:47:39;;;;;;;17.70;11.90;;;9.90;99.90;;;;;;5006821;28;20071;-58
2023/04/21 05:50:06;;;;;;;17.20;10.27;;;10.10;99.90;;;;;;5007157;28;20046;-58
2023/04/21 05:52:31;;;;;;;19.80;11.90;;;10.20;99.90;;;;;;5008492;28;20038;-58
2023/04/21 05:54:58;;;;;;;15.88;9.95;;;10.30;99.90;;;;;;5007102;28;20072;-57
2023/04/21 05:57:24;;;;;;;16.88;11.05;;;10.60;99.90;;;;;;5007560;28;20042;-52
2023/04/21 05:59:49;;;;;;;17.60;11.02;;;10.80;99.90;;;;;;5007398;28;20038;-56
2023/04/21 06:02:15;;;;;;;20.73;11.48;;;10.80;99.90;;;;;;5006857;28;20054;-58
2023/04/21 06:04:41;;;;;;;15.80;10.80;;;10.90;99.90;;;;;;5005218;28;20040;-56
2023/04/21 06:07:08;;;;;;;15.88;10.88;;;11.10;99.90;;;;;;5008080;28;20058;-58
2023/04/21 06:09:35;;;;;;;15.90;10.57;;;11.30;99.90;;;;;;5007330;28;20065;-52
2023/04/21 06:12:01;;;;;;;16.50;10.60;;;11.50;99.90;;;;;;5006450;28;20048;-54
2023/04/21 06:14:27;;;;;;;17.80;10.93;;;11.40;99.90;;;;;;5006724;28;20590;-55
2023/04/21 06:16:52;;;;;;;16.42;10.98;;;11.70;99.90;;;;;;5006369;28;20049;-53
2023/04/21 06:19:18;;;;;;;17.33;9.70;;;11.80;99.90;;;;;;5005586;28;20073;-51
2023/04/21 06:21:44;;;;;;;18.02;9.82;;;11.80;99.90;;;;;;5004781;28;20046;-55
2023/04/21 06:24:09;;;;;;;18.33;9.10;;;11.90;99.90;;;;;;5006621;28;20048;-50
2023/04/21 06:26:35;;;;;;;15.43;10.18;;;12.00;99.90;;;;;;5008137;28;20076;-54
2023/04/21 06:29:00;;;;;;;18.23;9.68;;;12.20;99.90;;;;;;5006589;28;20409;-53
2023/04/21 06:31:26;;;;;;;20.90;10.48;;;12.20;99.90;;;;;;5007183;28;20050;-53
2023/04/21 06:33:52;;;;;;;13.32;8.40;;;12.40;99.90;;;;;;5006331;28;20084;-49
2023/04/21 06:36:17;;;;;;;16.73;10.40;;;12.40;99.90;;;;;;5005803;28;20072;-54
2023/04/21 06:38:44;;;;;;;16.30;8.90;;;12.70;99.90;;;;;;5007310;28;20060;-55
2023/04/21 06:41:09;;;;;;;18.05;10.50;;;12.70;99.90;;;;;;5007380;28;20045;-51
2023/04/21 06:43:35;;;;;;;17.63;9.85;;;12.80;99.90;;;;;;5006932;28;20068;-56
2023/04/21 06:46:01;;;;;;;17.02;10.52;;;12.90;99.90;;;;;;5006677;28;20122;-54
2023/04/21 06:48:28;;;;;;;20.10;9.90;;;12.90;99.90;;;;;;5005941;28;20046;-53
2023/04/21 06:50:54;;;;;;;16.40;9.50;;;12.80;99.90;;;;;;5006990;28;20393;-56
2023/04/21 06:53:20;;;;;;;15.40;9.93;;;12.90;99.90;;;;;;5006510;28;20077;-50
2023/04/21 06:55:46;;;;;;;16.38;10.13;;;13.10;99.90;;;;;;5006801;28;20038;-52
2023/04/21 06:58:13;;;;;;;18.30;10.02;;;13.20;99.90;;;;;;5006683;28;20423;-54
2023/04/21 07:00:38;;;;;;;16.83;8.90;;;13.30;99.90;;;;;;5004925;28;20072;-55
2023/04/21 07:03:05;;;;;;;14.95;9.27;;;13.20;99.90;;;;;;5005458;28;20492;-56
2023/04/21 07:05:31;;;;;;;15.98;9.45;;;13.20;99.90;;;;;;5005839;28;20300;-55
2023/04/21 07:07:58;;;;;;;17.98;9.32;;;13.30;99.90;;;;;;5006214;28;20128;-57
2023/04/21 07:10:27;;;;;;;17.35;9.95;;;13.30;99.90;;;;;;5005973;28;20041;-60
2023/04/21 07:12:53;;;;;;;15.38;9.52;;;13.30;99.90;;;;;;5006320;28;20036;-59
2023/04/21 07:15:19;;;;;;;15.18;8.57;;;13.30;99.90;;;;;;5006134;28;20132;-60
2023/04/21 07:17:45;;;;;;;16.23;9.98;;;13.50;99.90;;;;;;5005255;28;20520;-50
2023/04/21 07:20:11;;;;;;;13.32;8.77;;;13.70;99.90;;;;;;5006150;28;20046;-58
2023/04/21 07:22:37;;;;;;;18.30;9.93;;;14.00;99.90;;;;;;5006345;28;20038;-59
2023/04/21 07:25:05;;;;;;;18.40;9.18;;;14.30;99.90;;;;;;5005861;28;20050;-57
2023/04/21 07:27:32;;;;;;;13.25;9.50;;;14.30;99.90;;;;;;5004578;28;20044;-59
2023/04/21 07:29:57;;;;;;;14.10;8.07;;;14.20;99.90;;;;;;5003447;28;20081;-56
2023/04/21 07:32:23;;;;;;;16.55;9.30;;;14.10;99.90;;;;;;4996827;28;20126;-55
2023/04/21 07:34:49;;;;;;;12.50;9.20;;;14.20;99.90;;;;;;4981594;28;20169;-59
2023/04/21 07:37:15;;;;;;;16.92;9.90;;;14.30;99.90;;;;;;4983643;28;20081;-56
2023/04/21 07:39:41;;;;;;;18.58;9.50;;;14.60;99.90;;;;;;4984280;28;20042;-59
2023/04/21 07:42:07;;;;;;;13.75;7.85;;;14.70;99.90;;;;;;4983044;28;20105;-50
2023/04/21 07:44:33;;;;;;;11.50;7.38;;;14.70;99.90;;;;;;4983305;28;20054;-59
2023/04/21 07:46:59;;;;;;;17.88;9.63;;;14.60;99.90;;;;;;4983619;28;20121;-52
2023/04/21 07:49:24;;;;;;;15.60;8.75;;;14.70;99.90;;;;;;4982743;28;20536;-48
2023/04/21 07:51:50;;;;;;;18.10;6.80;;;14.90;99.90;;;;;;4983619;28;20038;-54
2023/04/21 07:54:16;;;;;;;15.68;8.60;;;15.10;99.90;;;;;;4983526;28;20105;-55
2023/04/21 07:56:42;;;;;;;13.77;7.47;;;15.20;99.90;;;;;;4982465;28;20296;-56
2023/04/21 07:59:07;;;;;;;16.40;8.57;;;15.10;99.90;;;;;;4982567;28;20042;-55
2023/04/21 08:01:33;;;;;;;16.27;7.90;;;15.20;99.90;;;;;;4983296;28;20513;-55
2023/04/21 08:03:59;;;;;;;19.80;8.05;;;15.10;99.90;;;;;;4982717;28;20034;-56
2023/04/21 08:06:24;;;;;;;13.40;7.88;;;15.00;99.90;;;;;;4982745;28;20159;-58
2023/04/21 08:08:50;;;;;;;22.15;9.50;;;15.00;99.90;;;;;;4983214;28;20042;-56
2023/04/21 08:11:16;;;;;;;16.35;8.73;;;15.10;99.90;;;;;;4983370;28;20046;-60
2023/04/21 08:13:41;;;;;;;17.23;9.38;;;15.30;99.90;;;;;;4983241;28;20516;-47
2023/04/21 08:16:07;;;;;;;14.65;6.88;;;15.50;99.90;;;;;;4982734;28;20054;-60
2023/04/21 08:18:33;;;;;;;15.30;9.05;;;15.40;99.90;;;;;;4982445;28;20064;-59
2023/04/21 08:20:58;;;;;;;19.15;8.98;;;15.60;99.90;;;;;;4982992;28;20168;-59
2023/04/21 08:23:24;;;;;;;13.80;7.93;;;15.90;99.90;;;;;;4980702;28;20148;-57
2023/04/21 08:25:50;;;;;;;12.90;7.90;;;15.90;99.90;;;;;;4983070;28;20068;-56
2023/04/21 08:28:17;;;;;;;16.40;8.98;;;15.80;99.90;;;;;;4985711;28;20050;-50
2023/04/21 08:30:42;;;;;;;13.85;8.23;;;15.80;99.90;;;;;;5002595;28;20046;-48
2023/04/21 08:33:12;;;;;;;16.38;8.40;;;15.90;99.90;;;;;;5001093;28;20500;-51
2023/04/21 08:35:41;;;;;;;17.80;7.65;;;16.00;99.90;;;;;;5002510;28;20054;-54
2023/04/21 08:38:08;;;;;;;14.20;7.25;;;16.20;99.90;;;;;;5002608;28;20056;-58
2023/04/21 08:40:36;;;;;;;16.55;8.50;;;16.10;99.90;;;;;;5001746;28;20045;-47
2023/04/21 08:43:04;;;;;;;12.77;8.23;;;16.10;99.90;;;;;;5002767;28;20056;-59
2023/04/21 08:45:30;;;;;;;12.85;8.38;;;16.30;99.90;;;;;;5002079;28;20412;-56
2023/04/21 08:47:58;;;;;;;15.38;7.90;;;16.50;99.90;;;;;;4999682;28;20555;-50
2023/04/21 08:50:27;;;;;;;10.15;7.28;;;16.50;99.90;;;;;;5002129;28;20045;-64
2023/04/21 08:52:54;;;;;;;10.43;5.88;;;16.50;99.90;;;;;;5001964;28;20416;-62
2023/04/21 08:55:27;;;;;;;13.13;7.68;;;16.40;99.90;;;;;;5001529;28;20430;-57
2023/04/21 08:57:53;;;;;;;14.85;7.82;;;16.40;99.90;;;;;;5002161;28;20041;-51
2023/04/21 09:00:19;;;;;;;11.50;7.32;;;16.50;99.90;;;;;;5001958;28;20507;-59
2023/04/21 09:02:56;;;;;;;17.10;8.30;;;16.50;99.90;;;;;;5000962;28;20117;-59
2023/04/21 09:05:30;;;;;;;12.80;6.32;;;16.70;99.90;;;;;;5002123;28;20074;-55
2023/04/21 09:08:10;;;;;;;11.68;7.05;;;16.70;99.90;;;;;;5001165;28;20108;-51
2023/04/21 09:10:49;;;;;;;14.60;7.18;;;16.70;99.90;;;;;;5002136;28;20071;-51
2023/04/21 09:13:16;;;;;;;13.93;7.43;;;16.70;99.90;;;;;;5001693;28;20038;-48
2023/04/21 09:15:44;;;;;;;12.10;5.75;;;16.90;99.90;;;;;;5002200;28;20108;-49
2023/04/21 09:18:17;;;;;;;17.33;7.20;;;17.00;99.90;;;;;;5001555;28;20431;-54
2023/04/21 09:20:44;;;;;;;13.85;7.45;;;17.10;99.90;;;;;;5001600;28;20086;-55
2023/04/21 09:23:10;;;;;;;10.55;5.45;;;17.10;99.90;;;;;;5002013;28;20045;-57
2023/04/21 09:25:41;;;;;;;17.15;7.00;;;17.20;99.90;;;;;;5002137;28;20117;-50
2023/04/21 09:28:08;;;;;;;12.63;6.18;;;17.30;99.90;;;;;;5001297;28;20058;-52
2023/04/21 09:30:38;;;;;;;12.68;6.68;;;17.30;99.90;;;;;;5003607;28;20038;-57
2023/04/21 09:33:04;;;;;;;15.60;7.68;;;17.30;99.90;;;;;;5001047;28;20203;-58
2023/04/21 09:35:34;;;;;;;15.35;6.40;;;17.40;99.90;;;;;;5001245;28;20314;-58
2023/04/21 09:38:02;;;;;;;11.40;6.72;;;17.50;99.90;;;;;;5001029;28;20045;-58
2023/04/21 09:40:33;;;;;;;13.27;8.50;;;17.60;99.90;;;;;;5001559;28;20455;-56
2023/04/21 09:42:59;;;;;;;12.63;7.38;;;17.70;99.90;;;;;;5001466;28;20228;-62
2023/04/21 09:45:28;;;;;;;14.02;6.10;;;17.80;99.90;;;;;;5001459;28;20085;-61
2023/04/21 09:48:00;;;;;;;14.93;6.25;;;18.10;99.90;;;;;;5001216;28;20341;-62
2023/04/21 09:50:27;;;;;;;11.82;7.35;;;18.20;99.90;;;;;;5001031;28;20133;-53
2023/04/21 09:52:54;;;;;;;18.52;7.97;;;18.30;99.90;;;;;;5001794;28;20078;-57
2023/04/21 09:55:28;;;;;;;12.20;7.18;;;18.40;99.90;;;;;;5001913;28;20054;-60
2023/04/21 09:57:59;;;;;;;15.07;7.65;;;18.50;99.30;;;;;;5003022;28;20042;-49
2023/04/21 10:00:28;;;;;;;13.88;7.07;;;18.70;99.90;;;;;;5005264;28;20076;-59
2023/04/21 10:02:56;;;;;;;13.85;7.38;;;18.90;99.40;;;;;;5003691;28;20037;-59
2023/04/21 10:05:22;;;;;;;11.40;5.85;;;18.90;98.60;;;;;;5004972;28;20077;-59
2023/04/21 10:07:49;;;;;;;15.80;7.18;;;18.90;98.70;;;;;;5005228;28;20073;-62
2023/04/21 10:10:21;;;;;;;12.75;5.60;;;18.90;98.40;;;;;;5005374;28;20374;-61
2023/04/21 10:12:47;;;;;;;9.82;5.43;;;19.00;96.40;;;;;;5005245;28;20496;-53
2023/04/21 10:15:45;;;;;;;13.50;6.40;;;19.10;95.10;;;;;;5004825;28;20499;-56
2023/04/21 10:18:12;;;;;;;16.55;4.75;;;19.00;94.40;;;;;;4960453;28;20061;-62
2023/04/21 10:20:59;;;;;;;12.02;6.72;;;19.10;95.10;;;;;;5004679;28;20046;-62
2023/04/21 10:23:28;;;;;;;11.32;4.90;;;19.40;94.80;;;;;;5004698;28;20045;-60
2023/04/21 10:26:05;;;;;;;13.15;7.05;;;19.50;94.30;;;;;;5004539;28;20511;-58
2023/04/21 10:28:58;;;;;;;13.07;6.20;;;19.50;94.40;;;;;;5004259;28;20112;-56
2023/04/21 10:31:34;;;;;;;9.45;5.72;;;19.60;93.50;;;;;;5004486;28;20049;-60
2023/04/21 10:34:12;;;;;;;9.35;4.22;;;19.70;93.20;;;;;;5003775;28;20089;-61
2023/04/21 10:36:56;;;;;;;14.30;6.57;;;19.80;93.30;;;;;;5004397;28;20103;-58
2023/04/21 10:39:43;;;;;;;10.98;6.03;;;19.90;93.00;;;;;;5004641;28;20412;-59
2023/04/21 10:42:14;;;;;;;12.27;5.95;;;20.00;93.70;;;;;;5003942;28;20042;-54
2023/04/21 10:44:52;;;;;;;11.32;5.55;;;20.20;91.90;;;;;;5004411;28;20121;-59
2023/04/21 10:47:40;;;;;;;9.70;4.85;;;20.40;92.20;;;;;;5003200;28;20277;-61
2023/04/21 10:50:17;;;;;;;11.75;5.43;;;20.40;90.90;;;;;;5004135;28;20100;-52
2023/04/21 10:52:52;;;;;;;9.55;5.43;;;20.30;91.50;;;;;;5003627;28;20034;-57
2023/04/21 10:55:19;;;;;;;16.35;6.00;;;20.40;91.70;;;;;;5004151;28;20076;-60
2023/04/21 10:57:45;;;;;;;13.15;5.22;;;20.40;90.80;;;;;;5004054;28;20266;-61
2023/04/21 11:00:20;;;;;;;10.75;6.07;;;20.50;91.00;;;;;;5003143;28;20041;-61
2023/04/21 11:02:54;;;;;;;11.55;4.97;;;20.40;90.40;;;;;;5002072;28;20811;-54
2023/04/21 11:05:25;;;;;;;14.77;5.88;;;20.30;90.20;;;;;;5003447;28;20050;-62
2023/04/21 11:07:51;;;;;;;12.02;5.80;;;20.50;90.20;;;;;;5004025;28;20408;-55
2023/04/21 11:10:17;;;;;;;11.05;5.72;;;20.80;90.80;;;;;;5002519;28;20048;-54
2023/04/21 11:12:43;;;;;;;10.30;5.00;;;20.90;90.40;;;;;;5003405;28;20129;-54
2023/04/21 11:15:11;;;;;;;14.13;4.68;;;21.00;89.80;;;;;;5003571;28;20065;-55
2023/04/21 11:17:38;;;;;;;9.35;5.43;;;20.90;90.30;;;;;;5002724;28;20049;-56
2023/04/21 11:20:05;;;;;;;10.13;5.63;;;20.80;90.70;;;;;;5003463;28;20038;-61
2023/04/21 11:22:32;;;;;;;8.35;4.38;;;20.90;90.00;;;;;;5003213;28;20200;-61
2023/04/21 11:24:58;;;;;;;11.68;5.03;;;20.80;89.60;;;;;;5002258;28;20053;-61
2023/04/21 11:27:28;;;;;;;8.30;3.97;;;20.80;90.00;;;;;;5004051;28;20049;-51
2023/04/21 11:29:54;;;;;;;10.38;4.90;;;20.80;87.40;;;;;;5003373;28;20050;-61
2023/04/21 11:32:20;;;;;;;9.30;4.68;;;20.80;89.80;;;;;;5002838;28;20040;-58
2023/04/21 11:34:46;;;;;;;13.75;5.78;;;20.80;88.50;;;;;;5003046;28;20046;-61
2023/04/21 11:37:24;;;;;;;9.43;4.90;;;21.00;86.20;;;;;;5002805;28;20100;-57
2023/04/21 11:39:56;;;;;;;10.88;5.05;;;20.90;87.50;;;;;;5003261;28;20050;-59
2023/04/21 11:42:22;;;;;;;9.00;5.35;;;20.70;85.90;;;;;;5003034;28;20045;-54
2023/04/21 11:44:47;;;;;;;9.50;5.05;;;20.60;89.20;;;;;;5003422;28;20369;-54
2023/04/21 11:47:23;;;;;;;11.20;4.65;;;20.80;89.00;;;;;;5002738;28;20446;-56
2023/04/21 11:49:55;;;;;;;8.20;4.38;;;20.90;85.80;;;;;;5001702;28;20133;-61
2023/04/21 11:52:23;;;;;;;10.95;4.75;;;21.00;88.20;;;;;;5002887;28;20042;-58
2023/04/21 11:55:04;;;;;;;9.50;5.05;;;21.20;85.90;;;;;;5001591;28;20046;-48
2023/04/21 11:57:31;;;;;;;10.70;5.25;;;21.10;87.10;;;;;;5003012;28;20057;-62
2023/04/21 12:00:01;;;;;;;9.93;5.03;;;21.20;86.60;;;;;;5003320;28;20079;-61
2023/04/21 12:02:29;;;;;;;7.20;4.20;;;21.30;86.20;;;;;;5002133;28;20049;-54
2023/04/21 12:05:09;;;;;;;7.32;3.80;;;21.30;86.80;;;;;;5001820;28;20049;-54
2023/04/21 12:07:41;;;;;;;11.23;5.40;;;21.40;83.70;;;;;;5003304;28;20041;-57
2023/04/21 12:10:12;;;;;;;10.38;3.70;;;21.40;85.70;;;;;;5002238;28;20507;-61
2023/04/21 12:12:42;;;;;;;13.38;4.90;;;21.40;82.70;;;;;;5001422;28;20042;-61
2023/04/21 12:15:10;;;;;;;8.43;3.95;;;21.30;83.20;;;;;;5002088;28;20054;-54
2023/04/21 12:17:44;;;;;;;8.73;4.10;;;21.30;82.60;;;;;;5002109;28;20085;-56
2023/04/21 12:20:10;;;;;;;7.80;4.00;;;21.20;82.20;;;;;;5000719;28;20045;-61
2023/04/21 12:22:36;;;;;;;6.63;3.97;;;21.00;81.20;;;;;;5002051;28;20381;-62
2023/04/21 12:25:01;;;;;;;9.45;4.18;;;21.10;82.80;;;;;;5002866;28;20076;-62
2023/04/21 12:27:27;;;;;;;6.68;4.00;;;21.20;81.90;;;;;;5002734;28;20069;-50
2023/04/21 12:29:53;;;;;;;9.07;3.90;;;21.40;80.60;;;;;;5002627;28;20041;-60
2023/04/21 12:32:20;;;;;;;9.02;4.40;;;21.40;82.90;;;;;;5001022;28;20049;-59
2023/04/21 12:34:45;;;;;;;5.50;3.40;;;21.70;82.30;;;;;;5002486;28;20509;-57
2023/04/21 12:37:11;;;;;;;7.72;4.03;;;21.70;81.90;;;;;;5002181;28;20050;-56
2023/04/21 12:39:36;;;;;;;5.72;3.88;;;21.90;79.30;;;;;;5001878;28;20042;-57